Bookmark and Share
Track history (hours):
 

Red Fish

More information available from US FCC via Universal Licensing System and Coast Guard Vessel Documentation Center.

Last reported at 2014-Apr-20 20:32 UTC. Time now 2014-Apr-20 20:57 UTC.
Position N 29°25' W 094°44'.

Length 26 m; draft 2.9 m.

Type: Towing. MMSI: 367445690.

NotesDate/timePositionNaut miles runAvg speedWind from/ knotsBaromVisibWave heightAir tempDewpointWater temp
2014-Apr-20 20:32N 29°25' W 094°44'0 0.0
2014-Apr-20 18:27N 29°25' W 094°44'0 0.0
2014-Apr-20 17:27N 29°25' W 094°44'0 0.0
2014-Apr-20 15:13N 29°25' W 094°44'0 0.0
2014-Apr-20 11:33N 29°25' W 094°44'0 0.0
2014-Apr-20 10:33N 29°25' W 094°44'0 0.0
2014-Apr-20 09:33N 29°25' W 094°44'0 0.0
2014-Apr-20 08:33N 29°25' W 094°44'10 1.2
2014-Apr-20 00:33N 29°31' W 094°53'7 6.7
2014-Apr-19 23:33N 29°36' W 094°57'7 6.8
2014-Apr-19 22:33N 29°42' W 095°01'5 4.5
2014-Apr-19 21:26N 29°45' W 095°06'2 0.1
2014-Apr-19 01:11N 29°44' W 095°08'2 1.9
2014-Apr-19 00:09N 29°46' W 095°07'0 0.3
2014-Apr-18 23:18N 29°46' W 095°07'0 0.0
2014-Apr-18 22:17N 29°46' W 095°07'0 0.0
2014-Apr-18 20:13N 29°46' W 095°07'0 0.0
2014-Apr-18 19:27N 29°46' W 095°07'1 0.2
2014-Apr-18 15:23N 29°45' W 095°06'4 5.1
2014-Apr-18 14:33N 29°45' W 095°11'0 0.2
2014-Apr-18 13:30N 29°45' W 095°11'4 0.1
2014-Apr-16 23:14N 29°45' W 095°06'1 1.2
2014-Apr-16 22:29N 29°46' W 095°06'0 0.0
2014-Apr-16 21:31N 29°46' W 095°06'0 0.0
2014-Apr-16 17:14N 29°46' W 095°06'0 0.0
2014-Apr-16 14:25N 29°46' W 095°06'1 0.4
2014-Apr-16 12:33N 29°46' W 095°07'0 0.1
2014-Apr-16 03:27N 29°46' W 095°06'5 5.1
2014-Apr-16 02:33N 29°44' W 095°01'7 6.7
2014-Apr-16 01:33N 29°38' W 094°58'8 7.9
2014-Apr-16 00:33N 29°31' W 094°53'  
2014-Apr-11 12:29N 29°24' W 094°46'  

Dump ship's entire track history

sailing weather and tide predictions

Red Fish — WDF3926 — position and weather